createdAt,value
2019-03-22T00:00:36.337Z,71.55
2019-03-22T00:01:36.321Z,71.65
2019-03-22T00:02:36.303Z,71.69
2019-03-22T00:03:36.285Z,71.65
2019-03-22T00:04:36.270Z,71.74
2019-03-22T00:05:36.242Z,72.03
2019-03-22T00:06:36.226Z,71.93
2019-03-22T00:07:36.205Z,72.12
2019-03-22T00:08:36.201Z,72.03
2019-03-22T00:09:36.166Z,72.03
2019-03-22T00:10:36.151Z,72.03
2019-03-22T00:11:36.130Z,72.22
2019-03-22T00:12:36.124Z,72.50
2019-03-22T00:13:36.091Z,72.50
2019-03-22T00:14:37.144Z,72.31
2019-03-22T00:15:36.051Z,72.22
2019-03-22T00:16:36.037Z,72.41
2019-03-22T00:17:36.020Z,72.22
2019-03-22T00:18:35.999Z,72.12
2019-03-22T00:19:35.977Z,72.22
2019-03-22T00:20:35.960Z,72.22
2019-03-22T00:21:35.938Z,72.03
2019-03-22T00:22:35.920Z,72.60
2019-03-22T00:23:35.900Z,72.41
2019-03-22T00:24:35.880Z,72.12
2019-03-22T00:25:35.853Z,72.88
2019-03-22T00:26:35.844Z,72.78
2019-03-22T00:27:35.827Z,72.69
2019-03-22T00:28:35.805Z,72.69
2019-03-22T00:29:35.785Z,72.78
2019-03-22T00:30:35.767Z,72.97
2019-03-22T00:31:35.749Z,72.69
2019-03-22T00:32:35.735Z,73.16
2019-03-22T00:33:35.709Z,73.07
2019-03-22T00:34:35.689Z,73.07
2019-03-22T00:35:35.672Z,73.07
2019-03-22T00:36:35.669Z,72.78
2019-03-22T00:37:35.632Z,73.26
2019-03-22T00:38:35.618Z,73.45
2019-03-22T00:39:35.595Z,73.54
2019-03-22T00:40:35.594Z,73.45
2019-03-22T00:41:35.557Z,73.35
2019-03-22T00:42:35.545Z,73.35
2019-03-22T00:43:35.518Z,73.16
2019-03-22T00:44:35.501Z,73.45
2019-03-22T00:45:35.479Z,73.45
2019-03-22T00:46:35.474Z,73.35
2019-03-22T00:47:35.450Z,73.35
2019-03-22T00:48:35.421Z,73.26
2019-03-22T00:49:35.401Z,73.16
2019-03-22T00:50:35.380Z,73.35
2019-03-22T00:51:35.362Z,73.45
2019-03-22T00:52:35.351Z,73.35
2019-03-22T00:53:35.338Z,73.35
2019-03-22T00:54:35.303Z,73.54
2019-03-22T00:55:35.284Z,74.02
2019-03-22T00:56:35.267Z,74.02
2019-03-22T00:57:35.245Z,74.02
2019-03-22T00:58:35.232Z,73.92
2019-03-22T00:59:35.208Z,73.83
2019-03-22T01:00:35.189Z,73.92
2019-03-22T01:01:35.169Z,73.73
2019-03-22T01:02:35.148Z,73.73
2019-03-22T01:03:35.131Z,73.73
2019-03-22T01:04:35.112Z,74.02
2019-03-22T01:05:35.093Z,73.92
2019-03-22T01:06:35.073Z,73.26
2019-03-22T01:07:35.056Z,73.83
2019-03-22T01:08:35.038Z,73.64
2019-03-22T01:09:35.017Z,73.83
2019-03-22T01:10:34.998Z,74.11
2019-03-22T01:11:34.983Z,74.02
2019-03-22T01:12:34.956Z,73.92
2019-03-22T01:13:34.939Z,73.92
2019-03-22T01:14:34.918Z,73.45
2019-03-22T01:15:34.900Z,74.58
2019-03-22T01:16:34.881Z,74.11
2019-03-22T01:17:34.860Z,73.83
2019-03-22T01:18:34.844Z,73.92
2019-03-22T01:19:34.822Z,74.11
2019-03-22T01:20:34.803Z,74.02
2019-03-22T01:21:34.812Z,74.02
2019-03-22T01:22:34.766Z,74.11
2019-03-22T01:23:34.746Z,74.40
2019-03-22T01:24:34.727Z,74.40
2019-03-22T01:25:34.705Z,74.96
2019-03-22T01:26:34.684Z,74.11
2019-03-22T01:27:40.284Z,74.30
2019-03-22T01:28:34.649Z,73.92
2019-03-22T01:29:34.631Z,74.11
2019-03-22T01:30:34.627Z,74.02
2019-03-22T01:31:34.611Z,73.92
2019-03-22T01:32:34.571Z,74.02
2019-03-22T01:33:34.553Z,74.02
2019-03-22T01:34:34.532Z,74.11
2019-03-22T01:35:34.512Z,74.21
2019-03-22T01:36:34.503Z,74.11
2019-03-22T01:37:34.474Z,73.92
2019-03-22T01:38:34.455Z,74.11
2019-03-22T01:39:34.434Z,74.21
2019-03-22T01:40:34.421Z,74.49
2019-03-22T01:41:34.389Z,74.49
2019-03-22T01:42:34.379Z,74.49
2019-03-22T01:43:34.361Z,74.55
2019-03-22T01:44:34.340Z,74.58
2019-03-22T01:45:34.321Z,74.87
2019-03-22T01:46:34.300Z,74.77
2019-03-22T01:47:34.303Z,74.64
2019-03-22T01:48:34.260Z,74.74
2019-03-22T01:49:34.245Z,74.83
2019-03-22T01:50:34.228Z,74.77
2019-03-22T01:51:34.207Z,74.74
2019-03-22T01:52:34.188Z,74.83
2019-03-22T01:53:34.163Z,74.68
2019-03-22T01:54:34.146Z,74.64
2019-03-22T01:55:34.130Z,74.26
2019-03-22T01:56:34.110Z,74.55
2019-03-22T01:57:34.086Z,75.24
2019-03-22T01:58:34.075Z,75.21
2019-03-22T01:59:34.048Z,75.31
2019-03-22T02:00:34.031Z,75.02
2019-03-22T02:01:34.010Z,75.12
2019-03-22T02:02:33.991Z,75.21
2019-03-22T02:03:33.974Z,74.93
2019-03-22T02:04:33.952Z,75.02
2019-03-22T02:05:33.931Z,75.12
2019-03-22T02:06:33.914Z,75.49
2019-03-22T02:07:33.925Z,75.59
2019-03-22T02:08:33.867Z,75.40
2019-03-22T02:09:33.857Z,75.12
2019-03-22T02:10:33.868Z,75.12
2019-03-22T02:11:33.827Z,75.21
2019-03-22T02:12:33.797Z,75.49
2019-03-22T02:13:33.785Z,75.49
2019-03-22T02:14:33.760Z,75.40
2019-03-22T02:15:33.738Z,75.40
2019-03-22T02:16:33.720Z,75.78
2019-03-22T02:17:33.696Z,75.87
2019-03-22T02:18:33.682Z,75.59
2019-03-22T02:19:33.660Z,75.49
2019-03-22T02:20:33.640Z,75.68
2019-03-22T02:21:33.623Z,75.68
2019-03-22T02:22:33.602Z,75.87
2019-03-22T02:23:33.583Z,75.87
2019-03-22T02:24:33.566Z,75.87
2019-03-22T02:25:33.542Z,76.06
2019-03-22T02:26:33.525Z,76.15
2019-03-22T02:27:33.503Z,75.96
2019-03-22T02:28:33.486Z,76.25
2019-03-22T02:29:33.467Z,76.34
2019-03-22T02:30:33.497Z,75.96
2019-03-22T02:31:33.428Z,76.15
2019-03-22T02:32:33.410Z,75.96
2019-03-22T02:33:33.398Z,75.96
2019-03-22T02:34:33.402Z,75.96
2019-03-22T02:35:33.351Z,75.87
2019-03-22T02:36:33.330Z,75.87
2019-03-22T02:37:33.310Z,75.96
2019-03-22T02:38:33.289Z,76.06
2019-03-22T02:39:33.416Z,76.25
2019-03-22T02:40:33.257Z,76.25
2019-03-22T02:41:33.234Z,76.34
2019-03-22T02:42:33.218Z,76.44
2019-03-22T02:43:33.212Z,76.63
2019-03-22T02:44:33.176Z,76.25
2019-03-22T02:45:33.158Z,76.34
2019-03-22T02:46:33.135Z,76.63
2019-03-22T02:47:33.114Z,76.44
2019-03-22T02:48:33.095Z,76.44
2019-03-22T02:49:33.077Z,76.53
2019-03-22T02:50:33.054Z,76.34
2019-03-22T02:51:33.046Z,76.72
2019-03-22T02:52:33.017Z,76.72
2019-03-22T02:53:32.992Z,76.91
2019-03-22T02:54:32.987Z,76.91
2019-03-22T02:55:32.957Z,76.53
2019-03-22T02:56:32.938Z,76.82
2019-03-22T02:57:32.923Z,76.63
2019-03-22T02:58:32.902Z,76.91
2019-03-22T02:59:32.882Z,76.91
2019-03-22T03:00:32.863Z,77.01
2019-03-22T03:01:32.838Z,77.10
2019-03-22T03:02:32.820Z,76.91
2019-03-22T03:03:32.801Z,76.91
2019-03-22T03:04:32.793Z,77.01
2019-03-22T03:05:32.758Z,77.01
2019-03-22T03:06:32.741Z,77.20
2019-03-22T03:07:32.719Z,77.10
2019-03-22T03:08:32.703Z,76.78
2019-03-22T03:09:32.672Z,77.01
2019-03-22T03:10:32.660Z,77.01
2019-03-22T03:11:32.643Z,77.01
2019-03-22T03:12:32.618Z,76.82
2019-03-22T03:13:32.604Z,76.59
2019-03-22T03:14:32.582Z,76.68
2019-03-22T03:15:32.571Z,76.78
2019-03-22T03:16:32.543Z,76.97
2019-03-22T03:17:32.522Z,76.68
2019-03-22T03:18:32.502Z,76.78
2019-03-22T03:19:32.486Z,76.97
2019-03-22T03:20:32.480Z,77.06
2019-03-22T03:21:32.444Z,76.87
2019-03-22T03:22:32.423Z,76.87
2019-03-22T03:23:32.402Z,76.59
2019-03-22T03:24:32.384Z,76.97
2019-03-22T03:25:32.373Z,76.97
2019-03-22T03:26:32.342Z,76.97
2019-03-22T03:27:32.323Z,76.87
2019-03-22T03:28:37.346Z,77.15
2019-03-22T03:29:32.281Z,76.97
2019-03-22T03:30:32.275Z,76.87
2019-03-22T03:31:32.268Z,76.87
2019-03-22T03:32:32.235Z,76.91
2019-03-22T03:33:32.209Z,76.97
2019-03-22T03:34:32.185Z,76.97
2019-03-22T03:35:32.167Z,76.59
2019-03-22T03:36:34.941Z,77.44
2019-03-22T03:37:32.134Z,77.53
2019-03-22T03:38:32.103Z,77.67
2019-03-22T03:39:32.084Z,77.44
2019-03-22T03:40:32.080Z,77.15
2019-03-22T03:41:32.047Z,77.25
2019-03-22T03:42:32.036Z,77.44
2019-03-22T03:43:32.006Z,77.25
2019-03-22T03:44:31.982Z,77.34
2019-03-22T03:45:31.967Z,77.06
2019-03-22T03:46:31.949Z,77.53
2019-03-22T03:47:31.923Z,77.44
2019-03-22T03:48:31.910Z,77.25
2019-03-22T03:49:31.886Z,77.15
2019-03-22T03:50:31.873Z,77.25
2019-03-22T03:51:31.846Z,77.53
2019-03-22T03:52:31.827Z,77.44
2019-03-22T03:53:31.800Z,77.44
2019-03-22T03:54:31.791Z,77.44
2019-03-22T03:55:31.768Z,77.53
2019-03-22T03:56:31.746Z,77.63
2019-03-22T03:57:31.731Z,77.82
2019-03-22T03:58:31.706Z,77.91
2019-03-22T03:59:31.685Z,77.72
2019-03-22T04:00:31.673Z,77.63
2019-03-22T04:01:31.656Z,77.82
2019-03-22T04:02:31.649Z,77.44
2019-03-22T04:03:31.613Z,77.82
2019-03-22T04:04:31.586Z,77.63
2019-03-22T04:05:31.622Z,77.91
2019-03-22T04:06:31.605Z,78.10
2019-03-22T04:07:31.526Z,78.20
2019-03-22T04:08:31.508Z,78.29
2019-03-22T04:09:31.494Z,78.58
2019-03-22T04:10:31.465Z,78.01
2019-03-22T04:11:31.449Z,77.82
2019-03-22T04:12:31.434Z,77.72
2019-03-22T04:13:31.404Z,77.82
2019-03-22T04:14:31.384Z,78.10
2019-03-22T04:15:31.372Z,78.29
2019-03-22T04:16:31.347Z,78.29
2019-03-22T04:17:31.324Z,78.20
2019-03-22T04:18:31.309Z,78.20
2019-03-22T04:19:31.288Z,78.20
2019-03-22T04:20:31.268Z,78.10
2019-03-22T04:21:31.249Z,78.01
2019-03-22T04:22:31.225Z,78.10
2019-03-22T04:23:31.213Z,78.39
2019-03-22T04:24:31.187Z,78.20
2019-03-22T04:25:31.166Z,78.29
2019-03-22T04:26:31.153Z,78.29
2019-03-22T04:27:31.123Z,78.10
2019-03-22T04:28:31.127Z,78.29
2019-03-22T04:29:31.088Z,78.29
2019-03-22T04:30:31.076Z,78.29
2019-03-22T04:31:31.047Z,79.05
2019-03-22T04:32:31.027Z,78.95
2019-03-22T04:33:31.004Z,79.05
2019-03-22T04:34:30.986Z,78.95
2019-03-22T04:35:30.998Z,78.95
2019-03-22T04:36:30.958Z,78.86
2019-03-22T04:37:30.924Z,78.76
2019-03-22T04:38:30.909Z,78.76
2019-03-22T04:39:30.886Z,78.67
2019-03-22T04:40:30.869Z,78.76
2019-03-22T04:41:30.858Z,78.67
2019-03-22T04:42:30.827Z,78.67
2019-03-22T04:43:30.806Z,78.76
2019-03-22T04:44:30.784Z,78.76
2019-03-22T04:45:30.765Z,78.95
2019-03-22T04:46:30.777Z,78.95
2019-03-22T04:47:30.721Z,78.58
2019-03-22T04:48:30.699Z,78.67
2019-03-22T04:49:30.683Z,78.76
2019-03-22T04:50:30.669Z,78.86
2019-03-22T04:51:30.647Z,78.76
2019-03-22T04:52:30.622Z,78.76
2019-03-22T04:53:30.606Z,78.76
2019-03-22T04:54:30.584Z,79.14
2019-03-22T04:55:30.567Z,78.67
2019-03-22T04:56:30.544Z,78.67
2019-03-22T04:57:30.521Z,78.76
2019-03-22T04:58:30.503Z,78.67
2019-03-22T04:59:30.483Z,78.67
2019-03-22T05:00:30.464Z,78.76
2019-03-22T05:01:30.444Z,79.05
2019-03-22T05:02:30.424Z,78.67
2019-03-22T05:03:30.402Z,78.67
2019-03-22T05:04:30.394Z,79.43
2019-03-22T05:05:30.361Z,79.14
2019-03-22T05:06:30.339Z,79.33
2019-03-22T05:07:30.323Z,79.33
2019-03-22T05:08:30.317Z,78.95
2019-03-22T05:09:30.282Z,79.24
2019-03-22T05:10:30.261Z,79.05
2019-03-22T05:11:30.247Z,79.05
2019-03-22T05:12:30.230Z,79.05
2019-03-22T05:13:30.206Z,79.05
2019-03-22T05:14:30.180Z,79.14
2019-03-22T05:15:30.161Z,79.24
2019-03-22T05:16:30.143Z,79.14
2019-03-22T05:17:30.122Z,79.14
2019-03-22T05:18:30.101Z,79.14
2019-03-22T05:19:30.080Z,79.14
2019-03-22T05:20:30.060Z,78.76
2019-03-22T05:21:30.042Z,79.14
2019-03-22T05:22:30.023Z,79.14
2019-03-22T05:23:30.004Z,79.24
2019-03-22T05:24:29.982Z,78.95
2019-03-22T05:25:29.961Z,78.95
2019-03-22T05:26:29.940Z,79.05
2019-03-22T05:27:29.936Z,78.76
2019-03-22T05:28:29.900Z,78.76
2019-03-22T05:29:31.026Z,78.67
2019-03-22T05:30:29.860Z,78.67
2019-03-22T05:31:29.841Z,78.76
2019-03-22T05:32:29.825Z,78.86
2019-03-22T05:33:29.801Z,79.05
2019-03-22T05:34:29.778Z,79.05
2019-03-22T05:35:29.765Z,79.05
2019-03-22T05:36:29.742Z,78.95
2019-03-22T05:37:29.722Z,79.05
2019-03-22T05:38:29.699Z,79.24
2019-03-22T05:39:29.683Z,79.14
2019-03-22T05:40:29.661Z,79.05
2019-03-22T05:41:29.640Z,79.05
2019-03-22T05:42:29.621Z,79.14
2019-03-22T05:43:29.599Z,79.05
2019-03-22T05:44:29.583Z,79.14
2019-03-22T05:45:29.556Z,79.80
2019-03-22T05:46:29.545Z,79.14
2019-03-22T05:47:29.522Z,80.13
2019-03-22T05:48:29.503Z,79.90
2019-03-22T05:49:29.481Z,79.90
2019-03-22T05:50:29.462Z,79.90
2019-03-22T05:51:29.442Z,79.94
2019-03-22T05:52:29.421Z,79.52
2019-03-22T05:53:29.406Z,79.99
2019-03-22T05:54:29.391Z,79.66
2019-03-22T05:55:29.363Z,79.71
2019-03-22T05:56:29.342Z,79.80
2019-03-22T05:57:29.318Z,79.85
2019-03-22T05:58:29.303Z,79.56
2019-03-22T05:59:29.280Z,79.66
2019-03-22T06:00:29.266Z,79.75
2019-03-22T06:01:29.248Z,79.85
2019-03-22T06:02:29.226Z,79.56
2019-03-22T06:03:29.203Z,79.56
2019-03-22T06:04:29.185Z,79.75
2019-03-22T06:05:29.166Z,79.66
2019-03-22T06:06:29.162Z,79.66
2019-03-22T06:07:29.125Z,79.85
2019-03-22T06:08:29.101Z,79.94
2019-03-22T06:09:29.084Z,79.66
2019-03-22T06:10:29.068Z,80.22
2019-03-22T06:11:29.048Z,79.94
2019-03-22T06:12:29.029Z,80.04
2019-03-22T06:13:29.005Z,80.13
2019-03-22T06:14:28.989Z,80.13
2019-03-22T06:15:28.966Z,79.94
2019-03-22T06:16:28.947Z,79.94
2019-03-22T06:17:28.933Z,79.94
2019-03-22T06:18:28.907Z,80.04
2019-03-22T06:19:28.914Z,80.22
2019-03-22T06:20:28.876Z,79.66
2019-03-22T06:21:28.846Z,79.98
2019-03-22T06:22:28.844Z,79.79
2019-03-22T06:23:28.812Z,79.69
2019-03-22T06:24:28.794Z,79.79
2019-03-22T06:25:28.779Z,79.88
2019-03-22T06:26:28.755Z,79.69
2019-03-22T06:27:28.732Z,79.60
2019-03-22T06:28:28.715Z,79.88
2019-03-22T06:29:28.699Z,80.07
2019-03-22T06:30:28.679Z,79.55
2019-03-22T06:31:28.662Z,79.55
2019-03-22T06:32:28.634Z,79.17
2019-03-22T06:33:28.627Z,79.17
2019-03-22T06:34:28.602Z,79.17
2019-03-22T06:35:28.587Z,79.17
2019-03-22T06:36:28.568Z,79.07
2019-03-22T06:37:28.557Z,79.17
2019-03-22T06:38:28.528Z,78.92
2019-03-22T06:39:28.509Z,79.30
2019-03-22T06:40:28.492Z,79.11
2019-03-22T06:41:28.469Z,79.30
2019-03-22T06:42:28.453Z,78.92
2019-03-22T06:43:28.435Z,79.21
2019-03-22T06:44:28.418Z,78.92
2019-03-22T06:45:28.392Z,79.30
2019-03-22T06:46:28.380Z,78.83
2019-03-22T06:47:28.366Z,78.83
2019-03-22T06:48:28.344Z,79.21
2019-03-22T06:49:28.321Z,78.96
2019-03-22T06:50:28.304Z,79.15
2019-03-22T06:51:28.293Z,79.15
2019-03-22T06:52:28.272Z,78.96
2019-03-22T06:53:28.250Z,79.15
2019-03-22T06:54:31.890Z,79.25
2019-03-22T06:55:28.214Z,78.87
2019-03-22T06:56:28.200Z,78.77
2019-03-22T06:57:28.177Z,78.67
2019-03-22T06:58:28.160Z,79.00
2019-03-22T06:59:28.147Z,79.19
2019-03-22T07:00:28.125Z,78.24
2019-03-22T07:01:28.106Z,78.43
2019-03-22T07:02:28.092Z,78.34
2019-03-22T07:03:28.071Z,78.53
2019-03-22T07:04:28.051Z,78.34
2019-03-22T07:05:28.031Z,78.34
2019-03-22T07:06:28.018Z,78.43
2019-03-22T07:07:28.001Z,78.62
2019-03-22T07:08:27.990Z,78.34
2019-03-22T07:09:27.964Z,77.96
2019-03-22T07:10:27.954Z,78.24
2019-03-22T07:11:28.211Z,78.19
2019-03-22T07:12:27.914Z,78.38
2019-03-22T07:13:27.896Z,77.90
2019-03-22T07:14:27.886Z,78.09
2019-03-22T07:15:27.859Z,78.09
2019-03-22T07:16:27.844Z,78.09
2019-03-22T07:17:27.828Z,77.52
2019-03-22T07:18:27.814Z,77.43
2019-03-22T07:19:27.792Z,77.81
2019-03-22T07:20:27.783Z,77.90
2019-03-22T07:21:27.770Z,77.56
2019-03-22T07:22:27.736Z,77.75
2019-03-22T07:23:27.721Z,77.84
2019-03-22T07:24:27.707Z,77.84
2019-03-22T07:25:27.691Z,77.18
2019-03-22T07:26:30.035Z,77.18
2019-03-22T07:27:27.654Z,77.18
2019-03-22T07:28:27.653Z,77.09
2019-03-22T07:29:27.620Z,77.18
2019-03-22T07:30:27.603Z,77.18
2019-03-22T07:31:27.589Z,77.31
2019-03-22T07:32:27.567Z,77.12
2019-03-22T07:33:27.549Z,77.03
2019-03-22T07:34:27.599Z,76.93
2019-03-22T07:35:27.521Z,76.93
2019-03-22T07:36:27.500Z,76.75
2019-03-22T07:37:27.488Z,76.88
2019-03-22T07:38:27.470Z,76.88
2019-03-22T07:39:27.466Z,76.21
2019-03-22T07:40:27.434Z,76.31
2019-03-22T07:41:27.418Z,76.50
2019-03-22T07:42:27.406Z,76.54
2019-03-22T07:43:27.404Z,75.87
2019-03-22T07:44:27.375Z,75.59
2019-03-22T07:45:27.362Z,75.87
2019-03-22T07:46:27.340Z,76.01
2019-03-22T07:47:27.327Z,75.34
2019-03-22T07:48:27.309Z,76.10
2019-03-22T07:49:27.297Z,75.43
2019-03-22T07:50:27.280Z,74.71
2019-03-22T07:51:27.267Z,75.28
2019-03-22T07:52:27.252Z,74.90
2019-03-22T07:53:27.236Z,74.52
2019-03-22T07:54:27.224Z,74.94
2019-03-22T07:55:27.204Z,74.27
2019-03-22T07:56:27.191Z,74.18
2019-03-22T07:57:27.174Z,73.74
2019-03-22T07:58:27.154Z,72.78
2019-03-22T07:59:27.141Z,72.41
2019-03-22T08:00:30.945Z,71.93
2019-03-22T08:01:27.115Z,71.83
2019-03-22T08:02:27.105Z,71.58
2019-03-22T08:03:27.086Z,71.20
2019-03-22T08:04:27.089Z,70.82
2019-03-22T08:05:27.059Z,70.53
2019-03-22T08:06:27.041Z,69.87
2019-03-22T08:07:27.028Z,69.48
2019-03-22T08:08:27.018Z,69.52
2019-03-22T08:09:26.997Z,69.62
2019-03-22T08:10:26.988Z,69.04
2019-03-22T08:11:26.971Z,67.80
2019-03-22T08:12:26.955Z,68.38
2019-03-22T08:13:26.951Z,67.99
2019-03-22T08:14:26.931Z,67.93
2019-03-22T08:15:26.939Z,67.55
2019-03-22T08:16:26.899Z,67.27
2019-03-22T08:17:26.895Z,67.17
2019-03-22T08:18:26.872Z,67.07
2019-03-22T08:19:26.862Z,66.92
2019-03-22T08:20:26.873Z,66.63
2019-03-22T08:21:26.830Z,66.53
2019-03-22T08:22:26.814Z,65.67
2019-03-22T08:23:26.816Z,65.01
2019-03-22T08:24:26.795Z,65.20
2019-03-22T08:25:26.782Z,64.72
2019-03-22T08:26:26.810Z,64.28
2019-03-22T08:27:26.747Z,63.99
2019-03-22T08:28:26.759Z,63.70
2019-03-22T08:29:26.736Z,63.32
2019-03-22T08:30:26.706Z,63.16
2019-03-22T08:31:26.747Z,62.59
2019-03-22T08:32:26.685Z,62.11
2019-03-22T08:33:26.677Z,61.95
2019-03-22T08:34:26.659Z,61.47
2019-03-22T08:35:26.666Z,60.13
2019-03-22T08:36:26.637Z,60.04
2019-03-22T08:37:26.663Z,59.56
2019-03-22T08:38:26.604Z,59.40
2019-03-22T08:39:26.617Z,58.83
2019-03-22T08:40:26.587Z,58.54
2019-03-22T08:41:26.567Z,57.87
2019-03-22T08:42:26.579Z,57.61
2019-03-22T08:43:26.566Z,57.13
2019-03-22T08:44:26.534Z,57.42
2019-03-22T08:45:26.515Z,57.35
2019-03-22T08:46:26.507Z,56.10
2019-03-22T08:47:33.667Z,55.82
2019-03-22T08:48:26.482Z,55.08
2019-03-22T08:49:26.633Z,55.18
2019-03-22T08:50:26.461Z,54.22
2019-03-22T08:51:26.449Z,54.03
2019-03-22T08:52:26.445Z,53.67
2019-03-22T08:53:26.423Z,52.91
2019-03-22T08:54:26.415Z,52.33
2019-03-22T08:55:26.398Z,51.75
2019-03-22T08:56:26.390Z,51.46
2019-03-22T08:57:26.380Z,50.89
2019-03-22T08:58:26.378Z,50.60
2019-03-22T08:59:26.353Z,50.32
2019-03-22T09:00:38.563Z,50.53
2019-03-22T09:01:26.359Z,49.96
2019-03-22T09:02:26.326Z,49.76
2019-03-22T09:03:26.312Z,49.41
2019-03-22T09:04:26.299Z,49.12
2019-03-22T09:05:26.292Z,49.02
2019-03-22T09:06:26.279Z,48.95
2019-03-22T09:07:26.287Z,48.57
2019-03-22T09:08:26.257Z,48.40
2019-03-22T09:09:26.257Z,47.92
2019-03-22T09:10:26.241Z,47.66
2019-03-22T09:11:26.246Z,46.98
2019-03-22T09:12:27.013Z,46.21
2019-03-22T09:13:26.218Z,46.23
2019-03-22T09:14:26.196Z,45.56
2019-03-22T09:15:26.245Z,45.76
2019-03-22T09:16:26.177Z,45.78
2019-03-22T09:17:26.167Z,45.59
2019-03-22T09:18:26.162Z,45.01
2019-03-22T09:19:26.259Z,44.84
2019-03-22T09:20:26.174Z,44.74
2019-03-22T09:21:26.137Z,44.07
2019-03-22T09:22:26.129Z,43.61
2019-03-22T09:23:26.121Z,43.51
2019-03-22T09:24:38.274Z,43.03
2019-03-22T09:25:26.097Z,42.84
2019-03-22T09:26:26.116Z,43.03
2019-03-22T09:27:26.081Z,42.96
2019-03-22T09:28:26.072Z,42.47
2019-03-22T09:29:26.136Z,42.19
2019-03-22T09:30:26.053Z,41.71
2019-03-22T09:31:26.047Z,42.11
2019-03-22T09:32:26.069Z,41.53
2019-03-22T09:33:26.028Z,40.95
2019-03-22T09:34:33.738Z,40.69
2019-03-22T09:35:26.034Z,40.59
2019-03-22T09:36:26.005Z,40.22
2019-03-22T09:37:25.997Z,40.22
2019-03-22T09:38:28.518Z,39.86
2019-03-22T09:39:25.986Z,39.57
2019-03-22T09:40:25.987Z,38.53
2019-03-22T09:41:25.971Z,38.62
2019-03-22T09:42:25.971Z,38.71
2019-03-22T09:43:25.965Z,38.45
2019-03-22T09:44:28.229Z,37.87
2019-03-22T09:45:25.939Z,37.19
2019-03-22T09:46:25.974Z,37.29
2019-03-22T09:47:25.928Z,36.71
2019-03-22T09:48:26.000Z,36.72
2019-03-22T09:49:25.927Z,36.15
2019-03-22T09:50:25.909Z,35.95
2019-03-22T09:51:25.898Z,36.05
2019-03-22T09:52:25.921Z,35.18
2019-03-22T09:53:25.892Z,34.78
2019-03-22T09:54:25.881Z,34.58
2019-03-22T09:55:25.933Z,34.76
2019-03-22T09:56:25.865Z,34.74
2019-03-22T09:57:25.872Z,34.64
2019-03-22T09:58:25.855Z,34.63
2019-03-22T09:59:25.846Z,34.53
2019-03-22T10:00:25.841Z,34.92
2019-03-22T10:01:25.899Z,34.53
2019-03-22T10:02:25.835Z,34.36
2019-03-22T10:03:25.844Z,34.16
2019-03-22T10:04:25.810Z,34.26
2019-03-22T10:05:25.858Z,33.60
2019-03-22T10:06:25.843Z,33.50
2019-03-22T10:07:25.815Z,33.42
2019-03-22T10:08:25.790Z,33.04
2019-03-22T10:09:25.882Z,32.46
2019-03-22T10:10:25.851Z,32.09
2019-03-22T10:11:25.763Z,31.89
2019-03-22T10:12:25.806Z,31.98
2019-03-22T10:13:25.748Z,31.59
2019-03-22T10:14:25.760Z,31.96
2019-03-22T10:15:25.737Z,31.67
2019-03-22T10:16:25.725Z,31.96
2019-03-22T10:17:25.721Z,31.86
2019-03-22T10:18:25.722Z,31.28
2019-03-22T10:19:25.739Z,31.28
2019-03-22T10:20:25.717Z,31.59
2019-03-22T10:21:25.690Z,31.20
2019-03-22T10:22:25.709Z,31.30
2019-03-22T10:23:25.706Z,30.91
2019-03-22T10:24:25.677Z,31.10
2019-03-22T10:25:25.698Z,31.01
2019-03-22T10:26:25.663Z,30.54
2019-03-22T10:27:25.654Z,30.35
2019-03-22T10:28:25.663Z,30.05
2019-03-22T10:29:25.638Z,30.05
2019-03-22T10:30:25.643Z,30.14
2019-03-22T10:31:36.546Z,30.04
2019-03-22T10:32:25.622Z,30.33
2019-03-22T10:33:25.632Z,30.33
2019-03-22T10:34:25.673Z,30.25
2019-03-22T10:35:26.628Z,30.25
2019-03-22T10:36:25.598Z,30.05
2019-03-22T10:37:25.593Z,29.88
2019-03-22T10:39:25.578Z,29.22
2019-03-22T10:40:25.575Z,28.83
2019-03-22T10:41:25.595Z,28.83
2019-03-22T10:42:25.564Z,28.83
2019-03-22T10:43:25.554Z,28.73
2019-03-22T10:44:25.617Z,28.34
2019-03-22T10:45:25.605Z,28.83
2019-03-22T10:46:25.574Z,28.92
2019-03-22T10:47:25.539Z,28.73
2019-03-22T10:48:25.549Z,28.34
2019-03-22T10:49:25.561Z,27.86
2019-03-22T10:50:25.547Z,27.96
2019-03-22T10:51:25.581Z,27.96
2019-03-22T10:52:25.516Z,28.05
2019-03-22T10:53:25.496Z,27.67
2019-03-22T10:54:25.548Z,27.67
2019-03-22T10:55:30.100Z,27.47
2019-03-22T10:56:25.475Z,27.47
2019-03-22T10:57:25.472Z,27.57
2019-03-22T10:58:25.481Z,27.49
2019-03-22T10:59:25.482Z,27.58
2019-03-22T11:00:25.458Z,27.11
2019-03-22T11:01:25.449Z,27.11
2019-03-22T11:02:25.444Z,27.31
2019-03-22T11:03:25.468Z,26.93
2019-03-22T11:04:25.429Z,26.73
2019-03-22T11:05:25.434Z,25.95
2019-03-22T11:06:26.349Z,26.14
2019-03-22T11:07:25.425Z,26.52
2019-03-22T11:08:25.414Z,26.90
2019-03-22T11:09:25.408Z,26.90
2019-03-22T11:10:25.403Z,26.81
2019-03-22T11:11:25.398Z,26.81
2019-03-22T11:12:25.395Z,26.72
2019-03-22T11:13:25.388Z,26.72
2019-03-22T11:14:25.390Z,26.62
2019-03-22T11:15:25.397Z,26.90
2019-03-22T11:16:25.371Z,26.14
2019-03-22T11:17:25.366Z,26.14
2019-03-22T11:18:25.360Z,25.93
2019-03-22T11:19:25.357Z,25.93
2019-03-22T11:20:25.354Z,26.12
2019-03-22T11:21:25.350Z,26.03
2019-03-22T11:22:25.365Z,25.55
2019-03-22T11:23:25.336Z,25.65
2019-03-22T11:24:25.331Z,25.46
2019-03-22T11:25:25.322Z,25.26
2019-03-22T11:26:25.316Z,25.46
2019-03-22T11:27:25.315Z,25.55
2019-03-22T11:28:25.314Z,25.16
2019-03-22T11:29:25.302Z,25.36
2019-03-22T11:30:25.297Z,25.36
2019-03-22T11:31:28.521Z,25.27
2019-03-22T11:32:25.288Z,25.27
2019-03-22T11:33:25.287Z,25.18
2019-03-22T11:34:25.278Z,24.80
2019-03-22T11:35:25.274Z,25.19
2019-03-22T11:36:25.271Z,24.80
2019-03-22T11:37:25.270Z,24.62
2019-03-22T11:38:25.258Z,24.52
2019-03-22T11:39:25.254Z,24.52
2019-03-22T11:40:25.251Z,24.62
2019-03-22T11:41:25.254Z,24.54
2019-03-22T11:42:25.243Z,24.44
2019-03-22T11:43:25.661Z,24.55
2019-03-22T11:44:25.235Z,24.06
2019-03-22T11:45:25.307Z,23.59
2019-03-22T11:46:25.223Z,22.80
2019-03-22T11:47:25.218Z,22.90
2019-03-22T11:48:25.209Z,22.80
2019-03-22T11:49:25.212Z,22.60
2019-03-22T11:50:25.220Z,22.60
2019-03-22T11:51:25.202Z,22.50
2019-03-22T11:52:25.195Z,22.69
2019-03-22T11:53:25.194Z,22.79
2019-03-22T11:54:25.192Z,22.80
2019-03-22T11:55:25.187Z,22.72
2019-03-22T11:56:25.184Z,23.10
2019-03-22T11:57:25.178Z,22.53
2019-03-22T11:58:25.176Z,22.53
2019-03-22T11:59:25.174Z,21.96
2019-03-22T12:00:25.172Z,21.77
2019-03-22T12:01:25.166Z,21.86
2019-03-22T12:02:25.161Z,21.78
2019-03-22T12:03:25.162Z,21.88
2019-03-22T12:04:25.156Z,21.86
2019-03-22T12:05:25.156Z,21.77
2019-03-22T12:06:27.245Z,21.75
2019-03-22T12:07:25.156Z,21.95
2019-03-22T12:08:25.602Z,21.66
2019-03-22T12:09:25.141Z,21.75
2019-03-22T12:10:25.137Z,21.94
2019-03-22T12:11:25.132Z,21.84
2019-03-22T12:12:25.131Z,21.64
2019-03-22T12:13:25.126Z,21.82
2019-03-22T12:14:25.122Z,21.81
2019-03-22T12:15:25.118Z,21.81
2019-03-22T12:16:25.115Z,22.39
2019-03-22T12:17:25.108Z,22.48
2019-03-22T12:18:25.104Z,22.86
2019-03-22T12:19:25.101Z,22.48
2019-03-22T12:20:25.102Z,22.38
2019-03-22T12:21:25.092Z,22.57
2019-03-22T12:22:25.089Z,22.47
2019-03-22T12:23:25.084Z,22.56
2019-03-22T12:24:25.079Z,22.95
2019-03-22T12:25:25.078Z,22.66
2019-03-22T12:26:25.074Z,22.56
2019-03-22T12:27:25.065Z,22.75
2019-03-22T12:28:25.065Z,22.56
2019-03-22T12:29:25.065Z,22.27
2019-03-22T12:30:25.053Z,22.55
2019-03-22T12:31:25.047Z,22.45
2019-03-22T12:32:31.999Z,22.84
2019-03-22T12:33:25.047Z,22.65
2019-03-22T12:34:25.033Z,22.84
2019-03-22T12:35:25.031Z,22.74
2019-03-22T12:36:25.024Z,22.54
2019-03-22T12:37:25.022Z,22.84
2019-03-22T12:38:25.015Z,22.74
2019-03-22T12:39:25.012Z,22.94
2019-03-22T12:40:25.005Z,22.74
2019-03-22T12:41:24.996Z,22.74
2019-03-22T12:42:24.997Z,22.65
2019-03-22T12:43:24.995Z,22.65
2019-03-22T12:44:25.000Z,22.55
2019-03-22T12:45:24.979Z,22.84
2019-03-22T12:46:24.975Z,22.84
2019-03-22T12:47:24.970Z,22.74
2019-03-22T12:48:24.969Z,22.74
2019-03-22T12:49:24.963Z,22.74
2019-03-22T12:50:24.956Z,22.92
2019-03-22T12:51:24.956Z,23.32
2019-03-22T12:52:24.955Z,23.02
2019-03-22T12:53:24.942Z,22.83